Terminal Aerodrome Forecast
Issued by NWS

Home | Current Version | Previous Version | Text Only | Print | Product List | Glossary On
Versions: 1 2 3 4 5 6 7 8 9 10 11 12 13 14 15 16
789
FTUS46 KLOX 200008 CCA
TAFPMD
TAF COR
KPMD 200008Z 2000/2024 26012G20KT P6SM VCSH BKN035 BKN060
     FM200300 25012KT P6SM SCT035 BKN060
     FM201100 23015G22KT P6SM VCSH BKN035 OVC060
     FM201500 21017G27KT 6SM -SHRA BR SCT017 OVC035
     FM201900 20021G33KT 5SM RA BR BKN017 OVC035
     FM202300 24025KT 6SM -SHRA BR SCT017 OVC035=

USA.gov is the U.S. government's official web portal to all federal, state and local government web resources and services.